Time;durP1;ratioP1;P1;durP2;ratioP2;P2;SDS_P1;SDS_P2;PMS_P1;PMS_P2;Temp;Humidity;BMP_temperature;BMP_pressure;BME280_temperature;BME280_humidity;BME280_pressure;Samples;Min_cycle;Max_cycle;Signal;HPM_P1;HPM_P2
2021/08/17 00:00:14;;;;;;;0.00;0.00;;;;;;;;;;5125348;28;20500;-69
2021/08/17 00:02:41;;;;;;;0.00;0.00;;;;;;;;;;5125708;27;20227;-67
2021/08/17 00:05:08;;;;;;;0.10;0.10;;;;;;;;;;5108241;28;20413;-69
2021/08/17 00:07:35;;;;;;;0.10;0.10;;;;;;;;;;5107511;28;20275;-67
2021/08/17 00:10:03;;;;;;;0.10;0.10;;;;;;;;;;5125438;28;20209;-67
2021/08/17 00:12:29;;;;;;;0.10;0.10;;;;;;;;;;5125352;28;20226;-68
2021/08/17 00:14:56;;;;;;;0.10;0.10;;;;;;;;;;5111291;28;20212;-67
2021/08/17 00:17:23;;;;;;;0.10;0.10;;;;;;;;;;5110636;28;20208;-67
2021/08/17 00:19:49;;;;;;;0.10;0.10;;;;;;;;;;5124766;28;20251;-68
2021/08/17 00:22:15;;;;;;;0.10;0.10;;;;;;;;;;5125174;28;20515;-67
2021/08/17 00:24:41;;;;;;;0.10;0.10;;;;;;;;;;5125249;28;20209;-68
2021/08/17 00:27:08;;;;;;;0.10;0.10;;;;;;;;;;5125098;28;20229;-69
2021/08/17 00:29:34;;;;;;;0.10;0.10;;;;;;;;;;5125200;28;20202;-67
2021/08/17 00:32:01;;;;;;;0.00;0.00;;;;;;;;;;5125061;28;20211;-67
2021/08/17 00:34:28;;;;;;;0.10;0.10;;;;;;;;;;5125303;28;20309;-68
2021/08/17 00:36:54;;;;;;;0.10;0.10;;;;;;;;;;5124743;28;20238;-69
2021/08/17 00:39:20;;;;;;;0.10;0.10;;;;;;;;;;5124764;28;20278;-69
2021/08/17 00:41:46;;;;;;;0.10;0.10;;;;;;;;;;5113960;28;20395;-69
2021/08/17 00:44:19;;;;;;;0.10;0.10;;;;;;;;;;5121446;28;20211;-70
2021/08/17 00:46:45;;;;;;;0.10;0.10;;;;;;;;;;5124697;28;20256;-69
2021/08/17 00:49:13;;;;;;;0.10;0.10;;;;;;;;;;5109007;28;20244;-69
2021/08/17 00:51:39;;;;;;;0.10;0.10;;;;;;;;;;5116364;28;20245;-70
2021/08/17 00:54:07;;;;;;;0.10;0.10;;;;;;;;;;5108260;28;20446;-69
2021/08/17 00:56:33;;;;;;;0.60;0.60;;;;;;;;;;5121289;28;20525;-69
2021/08/17 00:59:00;;;;;;;0.10;0.10;;;;;;;;;;5124394;28;20221;-69
2021/08/17 01:01:26;;;;;;;0.10;0.10;;;;;;;;;;5123289;28;20218;-69
2021/08/17 01:03:52;;;;;;;0.10;0.10;;;;;;;;;;5110662;28;20199;-69
2021/08/17 01:06:20;;;;;;;0.10;0.10;;;;;;;;;;5110800;28;20215;-68
2021/08/17 01:08:46;;;;;;;0.00;0.00;;;;;;;;;;5123259;28;20194;-69
2021/08/17 01:11:12;;;;;;;0.10;0.10;;;;;;;;;;5123969;28;20224;-69
2021/08/17 01:13:39;;;;;;;0.10;0.10;;;;;;;;;;5120823;28;20201;-68
2021/08/17 01:16:05;;;;;;;0.10;0.10;;;;;;;;;;5103829;28;20477;-69
2021/08/17 01:18:31;;;;;;;0.10;0.10;;;;;;;;;;5103588;28;20281;-69
2021/08/17 01:20:58;;;;;;;0.10;0.10;;;;;;;;;;5104109;28;20204;-70
2021/08/17 01:23:30;;;;;;;0.10;0.10;;;;;;;;;;5117305;28;20448;-69
2021/08/17 01:25:58;;;;;;;0.10;0.10;;;;;;;;;;5110127;28;20373;-69
2021/08/17 01:28:24;;;;;;;0.10;0.10;;;;;;;;;;5123949;28;20236;-68
2021/08/17 01:30:58;;;;;;;0.10;0.10;;;;;;;;;;5118900;28;20201;-69
2021/08/17 01:33:25;;;;;;;0.10;0.10;;;;;;;;;;5115744;28;20200;-68
2021/08/17 01:35:51;;;;;;;0.07;0.07;;;;;;;;;;5109412;28;20375;-69
2021/08/17 01:38:17;;;;;;;0.10;0.10;;;;;;;;;;5123635;28;20201;-69
2021/08/17 01:40:43;;;;;;;0.10;0.10;;;;;;;;;;5121227;28;20202;-68
2021/08/17 01:43:11;;;;;;;0.10;0.10;;;;;;;;;;5111758;28;20323;-69
2021/08/17 01:45:37;;;;;;;0.00;0.00;;;;;;;;;;5123422;28;20495;-69
2021/08/17 01:48:05;;;;;;;0.10;0.10;;;;;;;;;;5110720;28;20292;-69
2021/08/17 01:50:32;;;;;;;0.10;0.10;;;;;;;;;;5103136;28;20204;-69
2021/08/17 01:52:58;;;;;;;0.10;0.10;;;;;;;;;;5108163;28;20208;-69
2021/08/17 01:55:24;;;;;;;0.03;0.03;;;;;;;;;;5123893;28;20203;-69
2021/08/17 01:57:50;;;;;;;0.10;0.10;;;;;;;;;;5110086;28;20204;-68
2021/08/17 02:00:19;;;;;;;0.10;0.10;;;;;;;;;;5109636;28;20240;-69
2021/08/17 02:02:45;;;;;;;0.10;0.10;;;;;;;;;;5127617;28;20272;-69
2021/08/17 02:05:11;;;;;;;0.10;0.10;;;;;;;;;;5124075;28;20245;-68
2021/08/17 02:07:38;;;;;;;0.10;0.10;;;;;;;;;;5116700;28;20245;-68
2021/08/17 02:10:05;;;;;;;0.00;0.00;;;;;;;;;;5127141;27;20271;-69
2021/08/17 02:12:31;;;;;;;0.10;0.10;;;;;;;;;;5119206;27;20203;-68
2021/08/17 02:14:57;;;;;;;0.10;0.10;;;;;;;;;;5106964;28;20214;-70
2021/08/17 02:17:25;;;;;;;0.10;0.10;;;;;;;;;;5127601;28;20478;-69
2021/08/17 02:19:51;;;;;;;0.10;0.10;;;;;;;;;;5114761;28;20250;-69
2021/08/17 02:22:17;;;;;;;0.00;0.00;;;;;;;;;;5126103;28;20207;-70
2021/08/17 02:24:44;;;;;;;0.10;0.10;;;;;;;;;;5127682;27;20207;-69
2021/08/17 02:27:10;;;;;;;0.10;0.10;;;;;;;;;;5127519;28;20446;-68
2021/08/17 02:29:36;;;;;;;0.10;0.10;;;;;;;;;;5118083;28;20246;-69
2021/08/17 02:32:03;;;;;;;0.10;0.10;;;;;;;;;;5121896;28;20241;-69
2021/08/17 02:34:30;;;;;;;0.10;0.10;;;;;;;;;;5120433;27;20414;-69
2021/08/17 02:36:56;;;;;;;0.10;0.10;;;;;;;;;;5110608;28;20208;-68
2021/08/17 02:39:23;;;;;;;0.10;0.10;;;;;;;;;;5106750;28;20208;-69
2021/08/17 02:41:49;;;;;;;0.13;0.13;;;;;;;;;;5118173;28;20477;-69
2021/08/17 02:44:15;;;;;;;0.10;0.10;;;;;;;;;;5123545;28;20478;-70
2021/08/17 02:46:41;;;;;;;0.10;0.10;;;;;;;;;;5114373;28;20419;-68
2021/08/17 02:49:09;;;;;;;0.10;0.10;;;;;;;;;;5115389;28;20236;-68
2021/08/17 02:51:37;;;;;;;0.10;0.10;;;;;;;;;;5125394;28;20255;-68
2021/08/17 02:54:03;;;;;;;0.10;0.10;;;;;;;;;;5113815;28;20441;-68
2021/08/17 02:56:29;;;;;;;0.10;0.10;;;;;;;;;;5126627;27;20203;-69
2021/08/17 02:58:58;;;;;;;0.10;0.10;;;;;;;;;;5126810;28;20200;-68
2021/08/17 03:01:25;;;;;;;0.10;0.10;;;;;;;;;;5107189;28;20268;-69
2021/08/17 03:03:51;;;;;;;0.00;0.00;;;;;;;;;;5116958;28;20198;-69
2021/08/17 03:06:17;;;;;;;0.10;0.10;;;;;;;;;;5111710;28;20225;-69
2021/08/17 03:08:45;;;;;;;0.10;0.10;;;;;;;;;;5117476;28;20354;-69
2021/08/17 03:11:12;;;;;;;0.10;0.10;;;;;;;;;;5121107;28;20228;-69
2021/08/17 03:13:38;;;;;;;0.10;0.10;;;;;;;;;;5125594;28;20227;-68
2021/08/17 03:16:05;;;;;;;0.10;0.10;;;;;;;;;;5126508;28;20205;-69
2021/08/17 03:18:31;;;;;;;0.10;0.10;;;;;;;;;;5125888;28;20441;-69
2021/08/17 03:20:58;;;;;;;0.10;0.10;;;;;;;;;;5125691;28;20248;-68
2021/08/17 03:23:26;;;;;;;0.20;0.20;;;;;;;;;;5125815;28;20518;-68
2021/08/17 03:25:54;;;;;;;0.10;0.10;;;;;;;;;;5125857;28;20516;-68
2021/08/17 03:28:20;;;;;;;0.10;0.10;;;;;;;;;;5121482;27;20227;-69
2021/08/17 03:30:46;;;;;;;0.10;0.10;;;;;;;;;;5126061;28;20201;-68
2021/08/17 03:33:12;;;;;;;0.10;0.10;;;;;;;;;;5125776;28;20203;-68
2021/08/17 03:35:39;;;;;;;0.10;0.10;;;;;;;;;;5125667;28;20207;-68
2021/08/17 03:38:05;;;;;;;0.10;0.10;;;;;;;;;;5125797;28;20257;-68
2021/08/17 03:40:31;;;;;;;0.10;0.10;;;;;;;;;;5125787;28;20245;-69
2021/08/17 03:42:59;;;;;;;0.00;0.00;;;;;;;;;;5125767;28;20384;-69
2021/08/17 03:45:25;;;;;;;0.10;0.10;;;;;;;;;;5125567;28;20211;-69
2021/08/17 03:47:52;;;;;;;0.10;0.10;;;;;;;;;;5116669;28;20294;-69
2021/08/17 03:50:19;;;;;;;0.10;0.10;;;;;;;;;;5120128;28;20438;-69
2021/08/17 03:52:45;;;;;;;0.10;0.10;;;;;;;;;;5125610;27;20213;-68
2021/08/17 03:55:12;;;;;;;0.10;0.10;;;;;;;;;;5125721;28;20413;-68
2021/08/17 03:57:38;;;;;;;0.00;0.00;;;;;;;;;;5121271;28;20195;-67
2021/08/17 04:00:08;;;;;;;0.10;0.10;;;;;;;;;;5114745;28;20321;-69
2021/08/17 04:02:34;;;;;;;0.00;0.00;;;;;;;;;;5124970;28;20206;-69
2021/08/17 04:05:01;;;;;;;0.10;0.10;;;;;;;;;;5116472;28;20281;-68
2021/08/17 04:07:27;;;;;;;0.10;0.10;;;;;;;;;;5105488;28;20392;-68
2021/08/17 04:09:53;;;;;;;0.03;0.03;;;;;;;;;;5125119;28;20239;-69
2021/08/17 04:12:19;;;;;;;0.10;0.10;;;;;;;;;;5125323;27;20242;-69
2021/08/17 04:14:46;;;;;;;0.10;0.10;;;;;;;;;;5124893;28;20252;-68
2021/08/17 04:17:13;;;;;;;0.10;0.10;;;;;;;;;;5125277;28;20327;-69
2021/08/17 04:19:40;;;;;;;0.10;0.10;;;;;;;;;;5110748;28;20222;-69
2021/08/17 04:22:06;;;;;;;0.10;0.10;;;;;;;;;;5125099;28;20231;-69
2021/08/17 04:24:33;;;;;;;0.10;0.10;;;;;;;;;;5124759;28;20225;-69
2021/08/17 04:26:59;;;;;;;0.10;0.10;;;;;;;;;;5124760;28;20203;-70
2021/08/17 04:29:25;;;;;;;0.10;0.10;;;;;;;;;;5124694;28;20265;-69
2021/08/17 04:31:51;;;;;;;0.10;0.10;;;;;;;;;;5124265;28;20208;-69
2021/08/17 04:34:19;;;;;;;0.10;0.10;;;;;;;;;;5125043;27;20249;-69
2021/08/17 04:36:45;;;;;;;0.10;0.10;;;;;;;;;;5124703;28;20369;-69
2021/08/17 04:39:11;;;;;;;0.10;0.10;;;;;;;;;;5124670;28;20200;-67
2021/08/17 04:41:38;;;;;;;0.10;0.10;;;;;;;;;;5124495;28;20493;-68
2021/08/17 04:44:06;;;;;;;0.00;0.00;;;;;;;;;;5124299;27;20222;-70
2021/08/17 04:46:32;;;;;;;0.10;0.10;;;;;;;;;;5109829;28;20242;-69
2021/08/17 04:48:58;;;;;;;0.10;0.10;;;;;;;;;;5124326;28;20226;-69
2021/08/17 04:51:27;;;;;;;0.07;0.07;;;;;;;;;;5111706;28;20212;-67
2021/08/17 04:53:53;;;;;;;0.10;0.10;;;;;;;;;;5117998;28;20208;-68
2021/08/17 04:56:20;;;;;;;0.10;0.10;;;;;;;;;;5115303;28;20204;-68
2021/08/17 04:58:46;;;;;;;0.10;0.10;;;;;;;;;;5123992;28;20245;-68
2021/08/17 05:01:12;;;;;;;0.10;0.10;;;;;;;;;;5124247;28;20250;-68
2021/08/17 05:03:38;;;;;;;0.00;0.00;;;;;;;;;;5124584;28;20204;-67
2021/08/17 05:06:05;;;;;;;0.00;0.00;;;;;;;;;;5124190;28;20511;-68
2021/08/17 05:08:32;;;;;;;0.00;0.00;;;;;;;;;;5114711;28;20421;-67
2021/08/17 05:10:59;;;;;;;0.10;0.10;;;;;;;;;;5105135;28;20277;-68
2021/08/17 05:13:25;;;;;;;0.10;0.10;;;;;;;;;;5116315;28;20219;-68
2021/08/17 05:15:51;;;;;;;0.10;0.10;;;;;;;;;;5118159;28;20253;-68
2021/08/17 05:18:17;;;;;;;0.00;0.00;;;;;;;;;;5104238;28;20251;-68
2021/08/17 05:20:44;;;;;;;0.10;0.10;;;;;;;;;;5116057;28;20248;-68
2021/08/17 05:23:10;;;;;;;0.00;0.00;;;;;;;;;;5119609;28;20205;-67
2021/08/17 05:25:37;;;;;;;0.10;0.10;;;;;;;;;;5104181;28;20485;-69
2021/08/17 05:28:04;;;;;;;0.10;0.10;;;;;;;;;;5119991;28;20226;-67
2021/08/17 05:30:31;;;;;;;0.10;0.10;;;;;;;;;;5123843;28;20209;-67
2021/08/17 05:32:57;;;;;;;0.10;0.10;;;;;;;;;;5123806;28;20496;-68
2021/08/17 05:35:23;;;;;;;0.10;0.10;;;;;;;;;;5123453;28;20210;-67
2021/08/17 05:37:50;;;;;;;0.03;0.03;;;;;;;;;;5123857;28;20257;-69
2021/08/17 05:40:16;;;;;;;0.10;0.10;;;;;;;;;;5123804;28;20213;-69
2021/08/17 05:42:43;;;;;;;0.10;0.10;;;;;;;;;;5123665;28;20204;-69
2021/08/17 05:45:11;;;;;;;0.10;0.10;;;;;;;;;;5120334;28;20314;-69
2021/08/17 05:47:41;;;;;;;0.10;0.10;;;;;;;;;;5112827;28;20565;-69
2021/08/17 05:50:08;;;;;;;0.10;0.10;;;;;;;;;;5123434;28;20268;-67
2021/08/17 05:52:37;;;;;;;0.10;0.10;;;;;;;;;;5123529;28;20241;-67
2021/08/17 05:55:03;;;;;;;0.10;0.10;;;;;;;;;;5109755;28;20216;-67
2021/08/17 05:57:29;;;;;;;0.10;0.10;;;;;;;;;;5123543;28;20204;-70
2021/08/17 05:59:57;;;;;;;0.10;0.10;;;;;;;;;;5114421;28;20198;-68
2021/08/17 06:02:23;;;;;;;0.10;0.10;;;;;;;;;;5103168;28;20424;-70
2021/08/17 06:04:49;;;;;;;0.00;0.00;;;;;;;;;;5110565;28;20200;-69
2021/08/17 06:07:17;;;;;;;0.10;0.10;;;;;;;;;;5123476;28;20220;-69
2021/08/17 06:09:43;;;;;;;0.10;0.10;;;;;;;;;;5123802;28;20227;-69
2021/08/17 06:12:10;;;;;;;0.10;0.10;;;;;;;;;;5123389;28;20224;-71
2021/08/17 06:14:36;;;;;;;0.10;0.10;;;;;;;;;;5123445;28;20242;-71
2021/08/17 06:17:04;;;;;;;0.07;0.07;;;;;;;;;;5123743;28;20204;-69
2021/08/17 06:19:31;;;;;;;0.07;0.07;;;;;;;;;;5123582;28;20285;-69
2021/08/17 06:21:57;;;;;;;0.03;0.03;;;;;;;;;;5115797;28;20418;-69
2021/08/17 06:24:23;;;;;;;0.10;0.10;;;;;;;;;;5117707;28;20250;-69
2021/08/17 06:26:49;;;;;;;0.10;0.10;;;;;;;;;;5117407;28;20255;-69
2021/08/17 06:29:16;;;;;;;0.10;0.10;;;;;;;;;;5115386;28;20228;-69
2021/08/17 06:31:42;;;;;;;0.10;0.10;;;;;;;;;;5118952;28;20249;-69
2021/08/17 06:34:10;;;;;;;0.10;0.10;;;;;;;;;;5114126;28;20448;-69
2021/08/17 06:36:36;;;;;;;0.10;0.10;;;;;;;;;;5123895;28;20208;-69
2021/08/17 06:39:03;;;;;;;0.10;0.10;;;;;;;;;;5123903;28;20204;-69
2021/08/17 06:41:29;;;;;;;0.10;0.10;;;;;;;;;;5108893;28;20206;-68
2021/08/17 06:43:55;;;;;;;0.10;0.10;;;;;;;;;;5123855;28;20200;-70
2021/08/17 06:46:22;;;;;;;0.10;0.10;;;;;;;;;;5123040;28;20540;-69
2021/08/17 06:48:48;;;;;;;0.10;0.10;;;;;;;;;;5121224;28;20221;-70
2021/08/17 06:51:15;;;;;;;0.00;0.00;;;;;;;;;;5106805;28;20245;-69
2021/08/17 06:53:42;;;;;;;0.03;0.03;;;;;;;;;;5124229;28;20205;-70
2021/08/17 06:56:09;;;;;;;0.10;0.10;;;;;;;;;;5121252;28;20206;-71
2021/08/17 06:58:35;;;;;;;0.10;0.10;;;;;;;;;;5118666;28;20199;-71
2021/08/17 07:01:02;;;;;;;0.10;0.10;;;;;;;;;;5112859;28;20204;-69
2021/08/17 07:03:29;;;;;;;0.10;0.10;;;;;;;;;;5126887;28;20222;-69
2021/08/17 07:05:55;;;;;;;0.00;0.00;;;;;;;;;;5126442;28;20269;-69
2021/08/17 07:08:23;;;;;;;0.10;0.10;;;;;;;;;;5126878;27;20208;-69
2021/08/17 07:10:50;;;;;;;0.07;0.07;;;;;;;;;;5112358;28;20247;-69
2021/08/17 07:13:16;;;;;;;0.10;0.10;;;;;;;;;;5126840;28;20200;-68
2021/08/17 07:15:42;;;;;;;0.10;0.10;;;;;;;;;;5126791;28;20208;-69
2021/08/17 07:18:09;;;;;;;0.00;0.00;;;;;;;;;;5126129;28;20234;-69
2021/08/17 07:20:37;;;;;;;0.10;0.10;;;;;;;;;;5115043;28;20217;-69
2021/08/17 07:23:03;;;;;;;0.10;0.10;;;;;;;;;;5123713;28;20201;-68
2021/08/17 07:25:31;;;;;;;0.00;0.00;;;;;;;;;;5116782;28;20297;-69
2021/08/17 07:27:57;;;;;;;0.10;0.10;;;;;;;;;;5120106;28;20213;-69
2021/08/17 07:30:23;;;;;;;0.10;0.10;;;;;;;;;;5113191;28;20535;-70
2021/08/17 07:32:49;;;;;;;0.00;0.00;;;;;;;;;;5126121;28;20239;-70
2021/08/17 07:35:17;;;;;;;0.10;0.10;;;;;;;;;;5125480;28;20212;-69
2021/08/17 07:37:44;;;;;;;0.00;0.00;;;;;;;;;;5126029;28;20224;-69
2021/08/17 07:40:11;;;;;;;0.10;0.10;;;;;;;;;;5126195;28;20197;-70
2021/08/17 07:42:38;;;;;;;0.10;0.10;;;;;;;;;;5126008;28;20202;-70
2021/08/17 07:45:08;;;;;;;0.10;0.10;;;;;;;;;;5111630;28;20206;-70
2021/08/17 07:47:34;;;;;;;0.00;0.00;;;;;;;;;;5126134;28;20200;-69
2021/08/17 07:50:00;;;;;;;0.20;0.20;;;;;;;;;;5125213;28;20543;-70
2021/08/17 07:52:26;;;;;;;0.10;0.10;;;;;;;;;;5112717;28;20236;-70
2021/08/17 07:54:53;;;;;;;2.30;2.20;;;;;;;;;;5126272;28;20248;-70
2021/08/17 07:57:19;;;;;;;0.10;0.10;;;;;;;;;;5121797;27;20198;-70
2021/08/17 07:59:46;;;;;;;0.10;0.10;;;;;;;;;;5118129;28;20198;-70
2021/08/17 08:02:13;;;;;;;0.10;0.10;;;;;;;;;;5105310;28;20252;-70
2021/08/17 08:04:39;;;;;;;0.05;0.05;;;;;;;;;;5110665;28;20209;-69
2021/08/17 08:07:05;;;;;;;0.00;0.00;;;;;;;;;;5125440;28;20255;-69
2021/08/17 08:09:31;;;;;;;0.10;0.10;;;;;;;;;;5121539;28;20220;-70
2021/08/17 08:11:57;;;;;;;0.10;0.10;;;;;;;;;;5114835;28;20205;-69
2021/08/17 08:14:24;;;;;;;0.00;0.00;;;;;;;;;;5111160;27;20275;-70
2021/08/17 08:16:52;;;;;;;0.10;0.10;;;;;;;;;;5117259;28;20198;-69
2021/08/17 08:19:19;;;;;;;0.10;0.10;;;;;;;;;;5119112;28;20222;-70
2021/08/17 08:21:45;;;;;;;0.00;0.00;;;;;;;;;;5125239;28;20209;-68
2021/08/17 08:24:11;;;;;;;0.10;0.10;;;;;;;;;;5125063;28;20208;-70
2021/08/17 08:26:37;;;;;;;0.10;0.10;;;;;;;;;;5125114;27;20535;-70
2021/08/17 08:29:03;;;;;;;0.08;0.08;;;;;;;;;;5125251;28;20436;-69
2021/08/17 08:31:30;;;;;;;0.10;0.10;;;;;;;;;;5125019;28;20209;-70
2021/08/17 08:33:57;;;;;;;0.10;0.10;;;;;;;;;;5124905;28;20199;-69
2021/08/17 08:36:23;;;;;;;0.10;0.10;;;;;;;;;;5124694;28;20202;-70
2021/08/17 08:38:50;;;;;;;0.00;0.00;;;;;;;;;;5125233;28;20194;-69
2021/08/17 08:41:18;;;;;;;0.00;0.00;;;;;;;;;;5124401;28;20205;-69
2021/08/17 08:43:45;;;;;;;0.10;0.10;;;;;;;;;;5118832;28;20205;-70
2021/08/17 08:46:15;;;;;;;0.10;0.10;;;;;;;;;;5116682;28;20202;-69
2021/08/17 08:48:41;;;;;;;0.07;0.07;;;;;;;;;;5120582;28;20371;-70
2021/08/17 08:51:09;;;;;;;0.08;0.08;;;;;;;;;;5104385;28;20401;-70
2021/08/17 08:53:35;;;;;;;0.20;0.20;;;;;;;;;;5107028;28;20217;-70
2021/08/17 08:56:01;;;;;;;0.10;0.10;;;;;;;;;;5120495;28;20226;-70
2021/08/17 08:58:28;;;;;;;0.10;0.10;;;;;;;;;;5124837;28;20202;-69
2021/08/17 09:00:54;;;;;;;0.10;0.10;;;;;;;;;;5110328;28;20202;-70
2021/08/17 09:03:39;;;;;;;0.10;0.10;;;;;;;;;;5124702;28;20204;-70
2021/08/17 09:06:14;;;;;;;0.10;0.10;;;;;;;;;;5124772;28;20219;-70
2021/08/17 09:08:45;;;;;;;0.10;0.10;;;;;;;;;;5124315;28;20204;-71
2021/08/17 09:11:16;;;;;;;0.10;0.10;;;;;;;;;;5106224;28;20236;-69
2021/08/17 09:13:42;;;;;;;0.00;0.00;;;;;;;;;;5114292;28;20231;-69
2021/08/17 09:16:22;;;;;;;0.10;0.10;;;;;;;;;;5114149;28;20205;-70
2021/08/17 09:18:50;;;;;;;0.10;0.10;;;;;;;;;;5124466;28;20293;-69
2021/08/17 09:21:16;;;;;;;0.10;0.10;;;;;;;;;;5124479;28;20201;-69
2021/08/17 09:23:42;;;;;;;0.10;0.10;;;;;;;;;;5124561;28;20202;-70
2021/08/17 09:26:22;;;;;;;0.10;0.10;;;;;;;;;;5123418;28;20211;-68
2021/08/17 09:28:54;;;;;;;0.10;0.10;;;;;;;;;;5112576;28;20238;-70
2021/08/17 09:31:33;;;;;;;0.07;0.07;;;;;;;;;;5123627;28;20500;-69
2021/08/17 09:33:59;;;;;;;0.10;0.10;;;;;;;;;;5124220;28;20217;-69
2021/08/17 09:36:25;;;;;;;0.10;0.10;;;;;;;;;;5123903;28;20201;-69
2021/08/17 09:38:52;;;;;;;0.10;0.10;;;;;;;;;;5124378;28;20198;-69
2021/08/17 09:41:19;;;;;;;0.10;0.10;;;;;;;;;;5124370;28;20381;-69
2021/08/17 09:43:56;;;;;;;0.10;0.10;;;;;;;;;;5124134;28;20251;-69
2021/08/17 09:46:25;;;;;;;0.10;0.10;;;;;;;;;;5124525;28;20334;-69
2021/08/17 09:48:52;;;;;;;0.08;0.08;;;;;;;;;;5124246;28;20243;-69
2021/08/17 09:51:30;;;;;;;0.10;0.10;;;;;;;;;;5124314;28;20288;-70
2021/08/17 09:54:09;;;;;;;0.10;0.10;;;;;;;;;;5124432;28;20432;-70
2021/08/17 09:56:35;;;;;;;0.10;0.10;;;;;;;;;;5114161;28;20198;-69
2021/08/17 09:59:04;;;;;;;0.10;0.10;;;;;;;;;;5118276;28;20331;-70
2021/08/17 10:01:31;;;;;;;0.00;0.00;;;;;;;;;;5111378;28;20209;-69
2021/08/17 10:03:58;;;;;;;0.00;0.00;;;;;;;;;;5123924;28;20225;-70
2021/08/17 10:06:24;;;;;;;0.10;0.10;;;;;;;;;;5117695;28;20390;-70
2021/08/17 10:08:51;;;;;;;0.10;0.10;;;;;;;;;;5115894;28;20253;-69
2021/08/17 10:11:18;;;;;;;0.10;0.10;;;;;;;;;;5123646;28;20389;-70
2021/08/17 10:13:45;;;;;;;0.08;0.08;;;;;;;;;;5123820;28;20244;-70
2021/08/17 10:16:16;;;;;;;0.10;0.10;;;;;;;;;;5121037;28;20240;-69
2021/08/17 10:18:44;;;;;;;0.32;0.32;;;;;;;;;;5112940;28;20237;-69
2021/08/17 10:21:10;;;;;;;0.10;0.10;;;;;;;;;;5124812;28;20203;-69
2021/08/17 10:23:40;;;;;;;0.10;0.10;;;;;;;;;;5127527;28;20265;-70
2021/08/17 10:26:06;;;;;;;0.10;0.10;;;;;;;;;;5113533;27;20207;-69
2021/08/17 10:28:33;;;;;;;0.10;0.10;;;;;;;;;;5127544;28;20239;-70
2021/08/17 10:31:20;;;;;;;0.10;0.10;;;;;;;;;;5127801;28;20218;-69
2021/08/17 10:33:50;;;;;;;0.35;0.35;;;;;;;;;;5128365;28;20485;-69
2021/08/17 10:36:29;;;;;;;0.10;0.10;;;;;;;;;;5113276;28;20198;-69
2021/08/17 10:38:55;;;;;;;0.10;0.10;;;;;;;;;;5115363;28;20219;-68
2021/08/17 10:41:29;;;;;;;0.10;0.10;;;;;;;;;;5127774;28;20202;-69
2021/08/17 10:44:14;;;;;;;0.08;0.08;;;;;;;;;;5114168;28;20194;-69
2021/08/17 10:46:42;;;;;;;0.00;0.00;;;;;;;;;;5112997;28;20228;-69
2021/08/17 10:52:29;;;;;;;0.10;0.10;;;;;;;;;;5095781;27;20593;-69
2021/08/17 10:55:23;;;;;;;0.00;0.00;;;;;;;;;;5094932;28;20200;-69
2021/08/17 10:57:51;;;;;;;0.00;0.00;;;;;;;;;;5056293;28;20487;-69
2021/08/17 11:00:32;;;;;;;0.03;0.03;;;;;;;;;;5092596;28;20216;-70
2021/08/17 11:02:58;;;;;;;0.00;0.00;;;;;;;;;;5086291;28;20249;-70
2021/08/17 11:05:39;;;;;;;0.10;0.10;;;;;;;;;;5100876;28;20202;-70
2021/08/17 11:08:20;;;;;;;0.03;0.03;;;;;;;;;;5094496;28;20471;-70
2021/08/17 11:10:48;;;;;;;0.10;0.10;;;;;;;;;;5094347;28;20227;-70
2021/08/17 11:13:14;;;;;;;0.00;0.00;;;;;;;;;;5072975;28;20203;-69
2021/08/17 11:15:40;;;;;;;0.10;0.10;;;;;;;;;;5100651;28;20400;-70
2021/08/17 11:18:06;;;;;;;0.10;0.10;;;;;;;;;;5096150;28;20233;-69
2021/08/17 11:20:33;;;;;;;0.10;0.10;;;;;;;;;;5090961;28;20245;-71
2021/08/17 11:22:59;;;;;;;0.10;0.10;;;;;;;;;;5100366;28;20204;-70
2021/08/17 11:25:25;;;;;;;0.10;0.10;;;;;;;;;;5100804;28;20423;-70
2021/08/17 11:27:53;;;;;;;0.00;0.00;;;;;;;;;;5085894;28;20204;-71
2021/08/17 11:30:22;;;;;;;0.10;0.10;;;;;;;;;;5093672;28;20224;-71
2021/08/17 11:32:55;;;;;;;0.10;0.10;;;;;;;;;;5080184;28;20206;-70
2021/08/17 11:35:23;;;;;;;0.10;0.10;;;;;;;;;;5066594;28;20193;-70
2021/08/17 11:37:50;;;;;;;0.08;0.08;;;;;;;;;;5080432;28;20201;-70
2021/08/17 11:40:17;;;;;;;0.10;0.10;;;;;;;;;;5093890;28;20210;-70
2021/08/17 11:42:44;;;;;;;0.00;0.00;;;;;;;;;;5091016;28;20209;-70
2021/08/17 11:45:13;;;;;;;0.00;0.00;;;;;;;;;;5085412;28;20314;-70
2021/08/17 11:47:40;;;;;;;0.10;0.10;;;;;;;;;;5090513;28;20524;-70
2021/08/17 11:50:08;;;;;;;0.30;0.30;;;;;;;;;;5067232;28;20228;-69
2021/08/17 11:52:35;;;;;;;0.10;0.10;;;;;;;;;;5100244;28;20240;-70
2021/08/17 11:55:04;;;;;;;0.17;0.17;;;;;;;;;;5100009;28;20203;-70
2021/08/17 11:57:31;;;;;;;0.10;0.10;;;;;;;;;;5097224;28;20204;-70
2021/08/17 12:00:04;;;;;;;0.10;0.10;;;;;;;;;;5089068;28;20437;-70
2021/08/17 12:02:32;;;;;;;0.08;0.08;;;;;;;;;;5090812;28;20451;-70
2021/08/17 12:04:59;;;;;;;0.00;0.00;;;;;;;;;;5074066;28;20203;-70
2021/08/17 12:07:27;;;;;;;0.10;0.10;;;;;;;;;;5086727;28;20203;-70
2021/08/17 12:09:54;;;;;;;0.10;0.10;;;;;;;;;;5086294;28;20200;-70
2021/08/17 12:12:40;;;;;;;0.00;0.00;;;;;;;;;;5073503;28;20328;-70
2021/08/17 12:15:10;;;;;;;0.08;0.08;;;;;;;;;;5053697;28;20220;-71
2021/08/17 12:17:38;;;;;;;0.10;0.10;;;;;;;;;;5080112;28;20425;-70
2021/08/17 12:20:05;;;;;;;0.10;0.10;;;;;;;;;;5066153;28;20494;-70
2021/08/17 12:22:33;;;;;;;0.10;0.10;;;;;;;;;;5066188;28;20276;-70
2021/08/17 12:24:59;;;;;;;0.10;0.10;;;;;;;;;;5080204;28;20414;-70
2021/08/17 12:27:26;;;;;;;0.10;0.10;;;;;;;;;;5066094;28;20254;-70
2021/08/17 12:29:54;;;;;;;0.10;0.10;;;;;;;;;;5080228;28;20424;-70
2021/08/17 12:32:21;;;;;;;0.10;0.10;;;;;;;;;;5075625;28;20227;-69
2021/08/17 12:34:50;;;;;;;0.00;0.00;;;;;;;;;;5084142;28;20203;-70
2021/08/17 12:37:29;;;;;;;0.00;0.00;;;;;;;;;;5073854;28;20257;-70
2021/08/17 12:39:56;;;;;;;0.03;0.03;;;;;;;;;;5084061;28;20264;-70
2021/08/17 12:42:22;;;;;;;0.10;0.10;;;;;;;;;;5065961;28;20342;-70
2021/08/17 12:44:49;;;;;;;0.10;0.10;;;;;;;;;;5079919;28;20207;-70
2021/08/17 12:47:18;;;;;;;0.10;0.10;;;;;;;;;;5085729;28;20207;-70
2021/08/17 12:49:46;;;;;;;0.10;0.10;;;;;;;;;;5085662;28;20205;-70
2021/08/17 12:52:24;;;;;;;0.10;0.10;;;;;;;;;;5085190;28;20545;-70
2021/08/17 12:54:51;;;;;;;0.10;0.10;;;;;;;;;;5085548;28;20495;-70
2021/08/17 12:57:19;;;;;;;0.00;0.00;;;;;;;;;;5085337;28;20273;-70
2021/08/17 12:59:45;;;;;;;0.10;0.10;;;;;;;;;;5085525;28;20200;-70
2021/08/17 13:02:11;;;;;;;0.10;0.10;;;;;;;;;;5072238;28;20273;-70
2021/08/17 13:04:38;;;;;;;0.00;0.00;;;;;;;;;;5084623;28;20208;-70
2021/08/17 13:07:04;;;;;;;0.00;0.00;;;;;;;;;;5073467;28;20242;-69
2021/08/17 13:09:32;;;;;;;0.10;0.10;;;;;;;;;;5078789;28;20205;-70
2021/08/17 13:11:58;;;;;;;0.10;0.10;;;;;;;;;;5065026;28;20440;-70
2021/08/17 13:14:24;;;;;;;0.10;0.10;;;;;;;;;;5080251;28;20204;-71
2021/08/17 13:16:51;;;;;;;0.20;0.20;;;;;;;;;;5077293;28;20399;-70
2021/08/17 13:19:17;;;;;;;0.00;0.00;;;;;;;;;;5065243;28;20266;-70
2021/08/17 13:21:43;;;;;;;0.10;0.10;;;;;;;;;;5057107;28;20203;-70
2021/08/17 13:24:10;;;;;;;0.10;0.10;;;;;;;;;;5085008;28;20204;-71
2021/08/17 13:26:37;;;;;;;0.05;0.05;;;;;;;;;;5083730;28;20209;-70
2021/08/17 13:29:04;;;;;;;0.10;0.10;;;;;;;;;;5084878;28;20215;-70
2021/08/17 13:31:30;;;;;;;0.10;0.10;;;;;;;;;;5070561;28;20533;-70
2021/08/17 13:33:56;;;;;;;0.00;0.00;;;;;;;;;;5075981;28;20207;-69
2021/08/17 13:36:22;;;;;;;0.10;0.10;;;;;;;;;;5078592;28;20551;-69
2021/08/17 13:38:49;;;;;;;0.10;0.10;;;;;;;;;;5071008;28;20201;-69
2021/08/17 13:41:15;;;;;;;0.10;0.10;;;;;;;;;;5084408;28;20381;-69
2021/08/17 13:43:44;;;;;;;0.10;0.10;;;;;;;;;;5070269;28;20207;-69
2021/08/17 13:46:10;;;;;;;0.10;0.10;;;;;;;;;;5085004;28;20256;-69
2021/08/17 13:48:37;;;;;;;0.10;0.10;;;;;;;;;;5063773;28;20197;-69
2021/08/17 13:51:03;;;;;;;0.00;0.00;;;;;;;;;;5063296;28;20488;-68
2021/08/17 13:53:30;;;;;;;0.00;0.00;;;;;;;;;;5084368;28;20513;-70
2021/08/17 13:55:56;;;;;;;0.00;0.00;;;;;;;;;;5084151;28;20201;-70
2021/08/17 13:58:22;;;;;;;0.10;0.10;;;;;;;;;;5074243;28;20239;-69
2021/08/17 14:00:50;;;;;;;0.08;0.08;;;;;;;;;;5066424;28;20226;-69
2021/08/17 14:03:16;;;;;;;0.00;0.00;;;;;;;;;;5076253;28;20276;-69
2021/08/17 14:05:48;;;;;;;0.10;0.10;;;;;;;;;;5063973;28;20205;-69
2021/08/17 14:08:14;;;;;;;0.00;0.00;;;;;;;;;;5077023;28;20200;-69
2021/08/17 14:10:41;;;;;;;0.00;0.00;;;;;;;;;;5077298;28;20207;-70
2021/08/17 14:13:07;;;;;;;0.10;0.10;;;;;;;;;;5084335;28;20382;-70
2021/08/17 14:15:33;;;;;;;0.10;0.10;;;;;;;;;;5082045;28;20250;-70
2021/08/17 14:18:02;;;;;;;0.08;0.08;;;;;;;;;;5071399;28;20246;-72
2021/08/17 14:20:28;;;;;;;0.05;0.05;;;;;;;;;;5084162;28;20215;-69
2021/08/17 14:22:55;;;;;;;0.00;0.00;;;;;;;;;;5082078;28;20199;-69
2021/08/17 14:25:21;;;;;;;0.10;0.10;;;;;;;;;;5071263;28;20203;-68
2021/08/17 14:27:47;;;;;;;0.10;0.10;;;;;;;;;;5069529;28;20212;-68
2021/08/17 14:30:14;;;;;;;0.00;0.00;;;;;;;;;;5055972;28;20258;-68
2021/08/17 14:32:40;;;;;;;0.10;0.10;;;;;;;;;;5083914;28;20219;-71
2021/08/17 14:35:08;;;;;;;0.10;0.10;;;;;;;;;;5069693;28;20546;-70
2021/08/17 14:37:34;;;;;;;0.00;0.00;;;;;;;;;;5072910;28;20500;-69
2021/08/17 14:40:00;;;;;;;0.00;0.00;;;;;;;;;;5077164;28;20243;-70
2021/08/17 14:42:29;;;;;;;0.10;0.10;;;;;;;;;;5071977;28;20213;-69
2021/08/17 14:44:55;;;;;;;0.17;0.17;;;;;;;;;;5082699;28;20204;-69
2021/08/17 14:47:21;;;;;;;0.10;0.10;;;;;;;;;;5070976;28;20396;-68